Time;durP1;ratioP1;P1;durP2;ratioP2;P2;SDS_P1;SDS_P2;PMS_P1;PMS_P2;Temp;Humidity;BMP_temperature;BMP_pressure;BME280_temperature;BME280_humidity;BME280_pressure;Samples;Min_cycle;Max_cycle;Signal;HPM_P1;HPM_P2
2022/12/08 00:01:22;;;;;;;21.10;13.82;;;;;;;2.44;100.00;101056.63;5036145;28;20037;-76
2022/12/08 00:03:49;;;;;;;24.02;13.65;;;;;;;2.41;100.00;101051.38;5043916;28;20044;-77
2022/12/08 00:09:24;;;;;;;23.92;13.73;;;;;;;2.42;100.00;101045.06;5028790;28;20041;-75
2022/12/08 00:12:00;;;;;;;21.73;13.57;;;;;;;2.44;100.00;101049.44;5029586;28;20238;-77
2022/12/08 00:14:32;;;;;;;21.25;13.10;;;;;;;2.44;100.00;101040.53;5029204;28;20534;-77
2022/12/08 00:16:58;;;;;;;20.73;13.18;;;;;;;2.45;100.00;101034.22;5043360;28;20065;-76
2022/12/08 00:19:25;;;;;;;23.52;13.10;;;;;;;2.46;100.00;101034.16;5028899;28;20079;-76
2022/12/08 00:21:51;;;;;;;21.23;14.48;;;;;;;2.49;100.00;101028.69;5027274;28;20436;-77
2022/12/08 00:24:18;;;;;;;23.88;13.75;;;;;;;2.52;100.00;101011.59;5028306;28;20120;-77
2022/12/08 00:26:43;;;;;;;24.50;13.77;;;;;;;2.55;100.00;101008.78;5027121;28;20072;-77
2022/12/08 00:29:09;;;;;;;23.77;15.20;;;;;;;2.58;100.00;101014.03;5028997;28;20441;-77
2022/12/08 00:31:35;;;;;;;23.85;13.45;;;;;;;2.61;100.00;101011.25;5027733;28;20037;-77
2022/12/08 00:34:00;;;;;;;22.83;15.50;;;;;;;2.64;100.00;101012.94;5027254;28;20056;-78
2022/12/08 00:36:26;;;;;;;26.60;13.32;;;;;;;2.62;100.00;101007.63;5031071;28;20083;-77
2022/12/08 00:38:52;;;;;;;23.98;13.63;;;;;;;2.63;100.00;101008.50;5046421;28;20496;-78
2022/12/08 00:44:07;;;;;;;22.23;13.55;;;;;;;2.67;100.00;101005.66;5027502;28;20076;-77
2022/12/08 00:46:33;;;;;;;21.85;13.93;;;;;;;2.69;100.00;101005.59;5023493;28;20029;-76
2022/12/08 00:48:58;;;;;;;24.95;13.57;;;;;;;2.69;100.00;100997.53;5048069;28;20048;-77
2022/12/08 00:51:23;;;;;;;24.15;13.85;;;;;;;2.67;100.00;100994.91;5047485;28;20037;-77
2022/12/08 00:53:49;;;;;;;24.63;13.35;;;;;;;2.70;100.00;100993.91;5024951;28;20055;-78
2022/12/08 00:56:14;;;;;;;24.35;13.48;;;;;;;2.69;100.00;101000.22;5026656;28;20041;-77
2022/12/08 00:58:39;;;;;;;24.13;13.63;;;;;;;2.68;100.00;100993.09;5041751;28;20408;-77
2022/12/08 01:01:13;;;;;;;25.63;13.98;;;;;;;2.69;100.00;100994.84;5028182;28;20371;-77
2022/12/08 01:03:38;;;;;;;23.35;14.23;;;;;;;2.68;100.00;100990.41;5043508;28;20037;-75
2022/12/08 01:06:05;;;;;;;22.83;14.23;;;;;;;2.67;100.00;100984.16;5026538;28;20082;-77
2022/12/08 01:08:31;;;;;;;26.23;14.38;;;;;;;2.69;100.00;100979.59;5026985;28;20041;-77
2022/12/08 01:11:22;;;;;;;25.90;14.70;;;;;;;2.70;100.00;100980.47;5028466;28;20500;-77
2022/12/08 01:13:47;;;;;;;28.27;14.80;;;;;;;2.69;100.00;100976.03;5027484;28;20517;-78
2022/12/08 01:16:20;;;;;;;25.30;15.57;;;;;;;2.69;100.00;100971.53;5027416;28;20120;-76
2022/12/08 01:18:46;;;;;;;21.85;14.57;;;;;;;2.69;100.00;100976.03;5041806;28;20033;-77
2022/12/08 01:21:11;;;;;;;23.42;14.18;;;;;;;2.67;100.00;100976.09;5027314;28;20041;-77
2022/12/08 01:23:36;;;;;;;28.77;14.45;;;;;;;2.70;100.00;100975.97;5043343;28;20040;-77
2022/12/08 01:26:04;;;;;;;24.88;13.35;;;;;;;2.72;100.00;100975.94;5026639;28;20052;-76
2022/12/08 01:28:30;;;;;;;26.10;14.07;;;;;;;2.73;100.00;100977.69;5042011;28;20038;-77
2022/12/08 01:30:56;;;;;;;21.17;12.80;;;;;;;2.71;100.00;100975.06;5026997;28;20083;-77
2022/12/08 01:33:22;;;;;;;19.88;11.50;;;;;;;2.74;100.00;100974.91;5027420;28;20037;-77
2022/12/08 01:35:47;;;;;;;18.80;11.75;;;;;;;2.76;100.00;100980.25;5041741;28;20053;-77
2022/12/08 01:38:13;;;;;;;17.63;11.35;;;;;;;2.76;100.00;100970.38;5027636;28;20064;-78
2022/12/08 01:40:38;;;;;;;22.38;11.95;;;;;;;2.77;100.00;100982.88;5026863;28;20086;-75
2022/12/08 01:43:03;;;;;;;20.27;11.27;;;;;;;2.78;100.00;100978.38;5028994;28;20033;-78
2022/12/08 01:45:31;;;;;;;23.75;11.65;;;;;;;2.80;100.00;100973.84;5027045;28;20033;-78
2022/12/08 01:48:06;;;;;;;18.70;11.45;;;;;;;2.80;100.00;100965.78;5026552;28;20037;-77
2022/12/08 01:50:32;;;;;;;20.33;11.10;;;;;;;2.77;100.00;100961.38;5031976;28;20041;-78
2022/12/08 01:53:09;;;;;;;20.73;11.48;;;;;;;2.79;100.00;100961.31;5054668;28;20255;-78
2022/12/08 01:55:41;;;;;;;19.10;11.00;;;;;;;2.79;100.00;100964.00;5065399;28;20367;-75
2022/12/08 01:58:17;;;;;;;21.65;10.95;;;;;;;2.77;100.00;100961.38;5040998;28;20148;-78
2022/12/08 02:00:43;;;;;;;18.63;11.77;;;;;;;2.76;100.00;100962.31;5031753;28;20483;-79
2022/12/08 02:03:14;;;;;;;21.95;11.98;;;;;;;2.78;100.00;100955.06;5029386;28;20033;-76
2022/12/08 02:05:42;;;;;;;20.98;11.48;;;;;;;2.77;100.00;100949.75;5028418;28;20116;-77
2022/12/08 02:08:11;;;;;;;20.90;11.32;;;;;;;2.77;100.00;100955.13;5044664;28;20132;-76
2022/12/08 02:10:39;;;;;;;21.50;10.60;;;;;;;2.76;100.00;100948.91;5042973;28;20021;-77
2022/12/08 02:13:08;;;;;;;23.92;11.23;;;;;;;2.76;100.00;100950.72;5028397;28;20041;-78
2022/12/08 02:16:08;;;;;;;21.25;10.52;;;;;;;2.76;100.00;100954.25;5027620;28;20067;-78
2022/12/08 02:18:52;;;;;;;17.10;10.23;;;;;;;2.76;100.00;100942.66;5025050;28;20415;-78
2022/12/08 02:21:32;;;;;;;16.27;9.30;;;;;;;2.74;100.00;100945.38;5034196;28;20055;-78
2022/12/08 02:24:13;;;;;;;19.35;10.65;;;;;;;2.73;100.00;100937.38;5039227;28;20484;-77
2022/12/08 02:27:05;;;;;;;17.42;10.57;;;;;;;2.74;100.00;100934.63;5041599;28;20029;-76
2022/12/08 02:29:50;;;;;;;14.05;8.70;;;;;;;2.73;100.00;100921.25;5015653;28;20135;-78
2022/12/08 02:32:40;;;;;;;17.38;9.98;;;;;;;2.73;100.00;100915.91;5027308;28;20053;-78
2022/12/08 02:35:26;;;;;;;14.63;8.45;;;;;;;2.72;100.00;100915.03;5027397;28;20033;-78
2022/12/08 02:38:12;;;;;;;15.40;7.43;;;;;;;2.69;100.00;100896.31;5027069;28;20161;-77
2022/12/08 02:40:56;;;;;;;15.45;8.25;;;;;;;2.71;100.00;100904.34;5028429;28;20076;-77
2022/12/08 02:43:31;;;;;;;11.80;7.43;;;;;;;2.71;100.00;100904.34;5039391;28;20045;-78
2022/12/08 02:46:04;;;;;;;11.82;7.07;;;;;;;2.69;100.00;100901.69;5025634;28;20071;-78
2022/12/08 02:48:32;;;;;;;14.73;8.35;;;;;;;2.71;100.00;100896.28;5027618;28;20523;-77
2022/12/08 02:50:57;;;;;;;12.98;7.22;;;;;;;2.70;100.00;100894.50;5034422;28;20488;-78
2022/12/08 02:53:23;;;;;;;12.23;6.68;;;;;;;2.70;100.00;100891.81;5045681;28;20044;-77
2022/12/08 02:56:06;;;;;;;10.20;6.25;;;;;;;2.69;100.00;100882.03;5033195;28;20032;-76
2022/12/08 02:58:38;;;;;;;12.95;6.85;;;;;;;2.74;100.00;100880.03;5044866;28;20041;-78
2022/12/08 03:01:25;;;;;;;8.77;5.75;;;;;;;2.74;100.00;100877.34;5030684;28;20809;-77
2022/12/08 03:04:22;;;;;;;12.95;6.68;;;;;;;2.74;100.00;100871.97;5028239;28;20045;-77
2022/12/08 03:07:11;;;;;;;10.48;6.25;;;;;;;2.72;100.00;100876.53;5029892;28;20033;-77
2022/12/08 03:10:11;;;;;;;11.75;6.78;;;;;;;2.75;100.00;100877.31;5030946;28;20100;-78
2022/12/08 03:13:03;;;;;;;13.38;6.30;;;;;;;2.75;100.00;100882.69;5016800;28;20103;-78
2022/12/08 03:15:30;;;;;;;11.40;6.45;;;;;;;2.77;100.00;100882.59;5032094;28;20095;-78
2022/12/08 03:17:58;;;;;;;13.90;6.82;;;;;;;2.80;100.00;100886.06;5044451;28;20033;-78
2022/12/08 03:20:26;;;;;;;12.05;6.93;;;;;;;2.81;100.00;100882.44;5029711;28;20120;-75
2022/12/08 03:22:55;;;;;;;15.18;7.25;;;;;;;2.83;100.00;100876.97;5028877;28;20147;-77
2022/12/08 03:25:24;;;;;;;10.63;6.97;;;;;;;2.83;100.00;100876.97;5045441;28;20037;-77
2022/12/08 03:27:51;;;;;;;12.60;7.35;;;;;;;2.86;100.00;100878.69;5029303;28;20443;-75
2022/12/08 03:30:17;;;;;;;12.60;6.97;;;;;;;2.85;100.00;100877.81;5030120;28;20373;-78
2022/12/08 03:32:49;;;;;;;10.40;6.30;;;;;;;2.88;100.00;100868.72;5043369;28;20424;-78
2022/12/08 03:35:28;;;;;;;13.35;7.47;;;;;;;2.89;100.00;100871.38;5029097;28;20037;-78
2022/12/08 03:38:09;;;;;;;15.90;7.72;;;;;;;2.89;100.00;100857.94;5028531;28;20046;-78
2022/12/08 03:40:35;;;;;;;11.63;7.35;;;;;;;2.90;100.00;100862.38;5029326;28;20130;-77
2022/12/08 03:43:00;;;;;;;12.98;7.55;;;;;;;2.88;100.00;100844.56;5030921;28;20200;-78
2022/12/08 03:45:26;;;;;;;17.23;8.88;;;;;;;2.89;100.00;100843.59;5028176;28;20033;-79
2022/12/08 03:47:51;;;;;;;14.15;8.60;;;;;;;2.89;100.00;100844.53;5028699;28;20448;-78
2022/12/08 03:50:17;;;;;;;18.40;10.13;;;;;;;2.89;100.00;100847.19;5029107;28;20151;-79
2022/12/08 03:52:42;;;;;;;18.95;10.40;;;;;;;2.89;100.00;100839.16;5029222;28;20578;-79
2022/12/08 03:55:08;;;;;;;23.05;12.02;;;;;;;2.87;100.00;100841.00;5030397;28;20041;-78
2022/12/08 03:57:33;;;;;;;23.15;11.57;;;;;;;2.90;100.00;100840.00;5038622;28;20196;-76
2022/12/08 03:59:59;;;;;;;24.17;12.07;;;;;;;2.86;100.00;100825.81;5028490;28;20041;-78
2022/12/08 04:02:24;;;;;;;22.83;12.43;;;;;;;2.92;100.00;100832.75;5027269;28;20026;-78
2022/12/08 04:04:49;;;;;;;29.92;13.65;;;;;;;2.93;100.00;100831.81;5029029;28;20036;-78
2022/12/08 04:07:15;;;;;;;28.38;13.90;;;;;;;2.93;100.00;100829.13;5028291;28;20041;-78
2022/12/08 04:09:40;;;;;;;31.65;14.35;;;;;;;2.93;100.00;100823.75;5029418;28;20060;-78
2022/12/08 04:12:07;;;;;;;28.95;15.35;;;;;;;2.93;100.00;100813.88;5032350;28;20030;-78
2022/12/08 04:14:32;;;;;;;32.17;17.20;;;;;;;2.93;100.00;100815.69;5029557;28;20115;-78
2022/12/08 04:16:57;;;;;;;38.53;16.55;;;;;;;2.97;100.00;100826.25;5027878;28;20477;-78
2022/12/08 04:19:23;;;;;;;35.45;17.20;;;;;;;2.96;100.00;100820.94;5028687;28;20423;-77
2022/12/08 04:21:48;;;;;;;38.53;18.90;;;;;;;2.98;100.00;100821.75;5027511;28;20021;-77
2022/12/08 04:24:13;;;;;;;34.95;16.65;;;;;;;2.98;100.00;100819.06;5029116;28;20056;-78
2022/12/08 04:26:39;;;;;;;38.22;17.50;;;;;;;2.97;100.00;100818.19;5028865;28;20105;-75
2022/12/08 04:29:04;;;;;;;35.72;15.77;;;;;;;2.96;100.00;100803.00;5029696;28;20080;-78
2022/12/08 04:31:29;;;;;;;40.53;17.33;;;;;;;2.96;100.00;100794.06;5044323;28;20448;-77
2022/12/08 04:33:55;;;;;;;33.63;17.15;;;;;;;2.96;100.00;100805.69;5028289;28;20037;-77
2022/12/08 04:36:20;;;;;;;29.13;15.38;;;;;;;2.95;100.00;100806.63;5019311;28;20045;-79
2022/12/08 04:38:45;;;;;;;29.27;14.88;;;;;;;2.92;100.00;100801.38;5027392;28;20073;-78
2022/12/08 04:41:11;;;;;;;28.75;14.85;;;;;;;2.94;100.00;100806.72;5030186;28;20071;-78
2022/12/08 04:43:36;;;;;;;25.55;12.52;;;;;;;2.94;100.00;100807.59;5029227;28;20048;-76
2022/12/08 04:46:05;;;;;;;25.88;12.27;;;;;;;2.95;100.00;100803.94;5029174;28;20461;-78
2022/12/08 04:48:30;;;;;;;21.52;11.63;;;;;;;2.95;100.00;100797.69;5026883;28;20094;-78
2022/12/08 04:50:55;;;;;;;27.23;12.00;;;;;;;2.91;100.00;100786.19;5039426;28;20435;-79
2022/12/08 04:53:21;;;;;;;23.70;11.77;;;;;;;2.91;100.00;100786.19;5028702;28;20546;-77
2022/12/08 04:55:48;;;;;;;22.88;11.18;;;;;;;2.91;100.00;100790.72;5028818;28;20036;-78
2022/12/08 04:58:16;;;;;;;19.55;10.82;;;;;;;2.92;100.00;100797.81;5028080;28;20087;-79
2022/12/08 05:00:42;;;;;;;21.08;10.65;;;;;;;2.92;100.00;100795.13;5027392;28;20048;-79
2022/12/08 05:03:08;;;;;;;16.95;9.65;;;;;;;2.90;100.00;100795.22;5028466;28;20064;-79
2022/12/08 05:05:34;;;;;;;17.48;10.38;;;;;;;2.93;100.00;100796.88;5035279;28;20061;-76
2022/12/08 05:07:59;;;;;;;19.65;10.60;;;;;;;2.93;100.00;100796.88;5010630;28;20041;-79
2022/12/08 05:10:25;;;;;;;18.65;9.57;;;;;;;2.91;100.00;100794.25;5026658;28;20539;-78
2022/12/08 05:12:50;;;;;;;16.30;7.88;;;;;;;2.94;100.00;100809.41;5031004;28;20443;-78
2022/12/08 05:15:15;;;;;;;11.13;6.45;;;;;;;2.92;100.00;100804.06;5026883;28;20125;-78
2022/12/08 05:17:41;;;;;;;12.65;5.60;;;;;;;2.91;100.00;100807.69;5025942;28;20088;-78
2022/12/08 05:20:07;;;;;;;8.55;4.32;;;;;;;2.93;100.00;100818.38;5043578;28;20037;-79
2022/12/08 05:22:32;;;;;;;7.25;4.65;;;;;;;2.92;100.00;100808.56;5026386;28;20038;-78
2022/12/08 05:24:58;;;;;;;9.65;4.25;;;;;;;2.92;100.00;100805.88;5028208;28;20045;-78
2022/12/08 05:27:23;;;;;;;9.10;4.20;;;;;;;2.90;100.00;100802.41;5026667;28;20034;-78
2022/12/08 05:29:49;;;;;;;4.78;3.10;;;;;;;2.90;100.00;100805.09;5027969;28;20065;-79
2022/12/08 05:32:14;;;;;;;6.65;3.75;;;;;;;2.90;100.00;100803.28;5042718;28;20072;-78
2022/12/08 05:34:40;;;;;;;8.00;3.08;;;;;;;2.91;100.00;100798.78;5027127;28;20481;-78
2022/12/08 05:37:05;;;;;;;7.03;3.60;;;;;;;2.86;100.00;100793.59;5027158;28;20064;-78
2022/12/08 05:39:31;;;;;;;7.57;3.35;;;;;;;2.89;100.00;100797.94;5028018;28;20048;-78
2022/12/08 05:41:56;;;;;;;4.93;3.60;;;;;;;2.90;100.00;100799.72;5031726;28;20507;-78
2022/12/08 05:44:21;;;;;;;6.88;3.53;;;;;;;2.91;100.00;100793.41;5026923;28;20495;-78
2022/12/08 05:46:47;;;;;;;8.95;4.13;;;;;;;2.90;100.00;100788.97;5028155;28;20061;-77
2022/12/08 05:49:12;;;;;;;5.20;3.30;;;;;;;2.91;100.00;100788.88;5027990;28;20029;-78
2022/12/08 05:51:38;;;;;;;6.15;3.25;;;;;;;2.92;100.00;100792.44;5042137;28;20043;-78
2022/12/08 05:54:03;;;;;;;6.90;3.65;;;;;;;2.93;100.00;100786.13;5041942;28;20090;-77
2022/12/08 05:56:28;;;;;;;5.25;3.25;;;;;;;2.90;100.00;100792.53;5010126;28;20029;-77
2022/12/08 05:58:54;;;;;;;8.00;4.00;;;;;;;2.90;100.00;100797.03;5027205;28;20033;-78
2022/12/08 06:01:28;;;;;;;4.43;2.80;;;;;;;2.87;100.00;100789.94;5040606;28;20172;-78
2022/12/08 06:03:54;;;;;;;5.10;2.88;;;;;;;2.85;100.00;100786.47;5045082;28;20480;-78
2022/12/08 06:06:20;;;;;;;4.28;2.90;;;;;;;2.84;100.00;100783.81;5044533;28;20545;-78
2022/12/08 06:08:46;;;;;;;3.78;2.90;;;;;;;2.81;100.00;100779.47;5025992;28;20033;-77
2022/12/08 06:11:20;;;;;;;4.90;2.65;;;;;;;2.79;100.00;100768.75;5017782;28;20393;-77
2022/12/08 06:13:45;;;;;;;4.70;2.17;;;;;;;2.79;100.00;100770.59;5034963;28;20404;-77
2022/12/08 06:16:11;;;;;;;3.67;2.55;;;;;;;2.80;100.00;100778.59;5037587;28;20029;-77
2022/12/08 06:18:36;;;;;;;3.40;2.20;;;;;;;2.78;100.00;100777.78;5032970;28;20065;-78
2022/12/08 06:21:06;;;;;;;3.05;2.42;;;;;;;2.79;100.00;100778.66;5045917;28;20432;-78
2022/12/08 06:23:32;;;;;;;3.22;2.25;;;;;;;2.77;100.00;100776.03;5040899;28;20044;-75
2022/12/08 06:26:03;;;;;;;2.33;2.13;;;;;;;2.77;100.00;100776.03;5045790;28;20016;-78
2022/12/08 06:28:29;;;;;;;3.40;2.20;;;;;;;2.77;100.00;100783.22;5038018;28;20046;-77
2022/12/08 06:30:55;;;;;;;3.33;2.17;;;;;;;2.76;100.00;100785.03;5045032;28;20038;-78
2022/12/08 06:33:20;;;;;;;5.53;2.20;;;;;;;2.74;100.00;100777.97;5045512;28;20025;-78
2022/12/08 06:35:45;;;;;;;4.05;2.50;;;;;;;2.72;100.00;100775.34;5045912;28;20045;-79
2022/12/08 06:38:11;;;;;;;4.80;2.60;;;;;;;2.72;100.00;100775.34;5043840;28;20044;-78
2022/12/08 06:40:36;;;;;;;3.00;2.08;;;;;;;2.71;100.00;100772.75;5047233;28;20032;-78
2022/12/08 06:43:01;;;;;;;2.38;2.17;;;;;;;2.69;100.00;100772.78;5038088;28;20029;-79
2022/12/08 06:45:27;;;;;;;2.35;1.80;;;;;;;2.68;100.00;100764.78;5046967;28;20037;-79
2022/12/08 06:47:52;;;;;;;2.55;2.03;;;;;;;2.66;100.00;100770.25;5039105;28;20492;-78
2022/12/08 06:50:18;;;;;;;6.07;2.42;;;;;;;2.66;100.00;100770.25;5026942;28;20044;-78
2022/12/08 06:52:44;;;;;;;2.92;2.42;;;;;;;2.61;100.00;100768.66;5025730;28;20041;-78
2022/12/08 06:55:11;;;;;;;4.72;2.45;;;;;;;2.63;100.00;100770.34;5027359;28;20041;-76
2022/12/08 06:57:36;;;;;;;5.65;2.55;;;;;;;2.62;100.00;100773.97;5032702;28;20131;-79
2022/12/08 07:00:04;;;;;;;2.85;2.10;;;;;;;2.62;100.00;100770.44;5044303;28;20377;-79
2022/12/08 07:02:29;;;;;;;6.65;2.72;;;;;;;2.63;100.00;100775.72;5041925;28;20018;-77
2022/12/08 07:04:54;;;;;;;5.68;2.47;;;;;;;2.63;100.00;100775.72;5026298;28;20048;-78
2022/12/08 07:07:20;;;;;;;5.68;2.85;;;;;;;2.64;100.00;100772.09;5040970;28;20652;-78
2022/12/08 07:09:45;;;;;;;5.70;3.00;;;;;;;2.65;100.00;100775.66;5025881;28;20481;-78
2022/12/08 07:12:10;;;;;;;4.07;2.75;;;;;;;2.63;100.00;100780.22;5030637;28;20477;-78
2022/12/08 07:14:36;;;;;;;4.00;3.20;;;;;;;2.64;100.00;100781.97;5042719;28;20064;-77
2022/12/08 07:17:01;;;;;;;6.55;3.53;;;;;;;2.64;100.00;100777.47;5026653;28;20044;-78
2022/12/08 07:19:26;;;;;;;6.32;3.28;;;;;;;2.65;100.00;100775.66;5024511;28;20037;-79
2022/12/08 07:21:52;;;;;;;4.53;3.05;;;;;;;2.64;100.00;100781.97;5026577;28;20071;-79
2022/12/08 07:24:17;;;;;;;6.20;3.53;;;;;;;2.63;100.00;100774.84;5032749;28;20025;-78
2022/12/08 07:26:42;;;;;;;4.82;3.17;;;;;;;2.63;100.00;100778.41;5013300;28;20029;-79
2022/12/08 07:29:09;;;;;;;8.93;4.07;;;;;;;2.64;100.00;100779.28;5027548;28;20080;-78
2022/12/08 07:31:35;;;;;;;5.25;3.85;;;;;;;2.62;100.00;100778.47;5026186;28;20507;-77
2022/12/08 07:34:01;;;;;;;6.65;3.78;;;;;;;2.62;100.00;100775.78;5027036;28;20042;-78
2022/12/08 07:36:26;;;;;;;5.85;4.07;;;;;;;2.63;100.00;100775.72;5029719;28;20412;-80
2022/12/08 07:38:52;;;;;;;6.38;4.03;;;;;;;2.62;100.00;100779.34;5030370;28;20116;-78
2022/12/08 07:41:23;;;;;;;9.18;4.38;;;;;;;2.62;100.00;100771.28;5032253;28;20045;-77
2022/12/08 07:43:49;;;;;;;6.85;4.38;;;;;;;2.58;100.00;100761.63;5030100;28;20037;-77
2022/12/08 07:46:17;;;;;;;10.75;4.78;;;;;;;2.62;100.00;100767.75;5030262;28;20029;-77
2022/12/08 07:48:43;;;;;;;9.18;5.93;;;;;;;2.59;100.00;100765.16;5029286;28;20064;-78
2022/12/08 07:51:10;;;;;;;12.50;5.82;;;;;;;2.62;100.00;100768.63;5030013;28;20492;-79
2022/12/08 07:53:38;;;;;;;8.80;5.53;;;;;;;2.64;100.00;100764.03;5030883;28;20111;-79
2022/12/08 07:56:08;;;;;;;8.27;5.13;;;;;;;2.64;100.00;100777.47;5030000;28;20487;-78
2022/12/08 07:58:33;;;;;;;10.43;7.20;;;;;;;2.66;100.00;100775.63;5029507;28;20107;-78
2022/12/08 08:00:59;;;;;;;11.90;7.85;;;;;;;2.67;100.00;100779.16;5030185;28;20366;-78
2022/12/08 08:03:24;;;;;;;13.73;8.10;;;;;;;2.68;100.00;100772.84;5028957;28;20053;-79
2022/12/08 08:05:50;;;;;;;12.05;8.30;;;;;;;2.70;100.00;100779.88;5029388;28;20539;-79
2022/12/08 08:08:16;;;;;;;18.35;8.77;;;;;;;2.71;100.00;100780.78;5028586;28;20044;-79
2022/12/08 08:10:42;;;;;;;17.10;9.57;;;;;;;2.73;100.00;100779.78;5042164;28;20037;-80
2022/12/08 08:13:08;;;;;;;14.75;8.63;;;;;;;2.74;100.00;100777.97;5031370;28;20048;-79
2022/12/08 08:15:34;;;;;;;14.25;8.68;;;;;;;2.74;100.00;100769.91;5028464;28;20044;-77
2022/12/08 08:18:00;;;;;;;12.32;7.38;;;;;;;2.72;100.00;100775.34;5016373;28;20350;-79
2022/12/08 08:20:25;;;;;;;11.23;5.82;;;;;;;2.73;100.00;100776.22;5029618;28;20434;-78
2022/12/08 08:22:51;;;;;;;9.05;5.97;;;;;;;2.72;100.00;100779.84;5029246;28;20128;-78
2022/12/08 08:25:17;;;;;;;8.43;6.00;;;;;;;2.74;100.00;100786.03;5029568;28;20400;-78
2022/12/08 08:27:43;;;;;;;6.05;4.53;;;;;;;2.73;100.00;100778.91;5028628;28;20053;-78
2022/12/08 08:30:10;;;;;;;4.85;2.90;;;;;;;2.70;100.00;100787.06;5039007;28;20038;-78
2022/12/08 08:32:36;;;;;;;5.25;2.53;;;;;;;2.66;100.00;100786.34;5027369;28;20041;-78
2022/12/08 08:35:02;;;;;;;4.40;2.67;;;;;;;2.64;100.00;100779.28;5029151;28;20069;-79
2022/12/08 08:37:27;;;;;;;4.95;2.35;;;;;;;2.63;100.00;100781.09;5027526;28;20552;-78
2022/12/08 08:39:52;;;;;;;3.60;2.20;;;;;;;2.62;100.00;100778.47;5028142;28;20120;-78
2022/12/08 08:42:18;;;;;;;5.95;2.90;;;;;;;2.60;100.00;100774.97;5040284;28;20033;-78
2022/12/08 08:44:44;;;;;;;2.78;2.25;;;;;;;2.60;100.00;100778.53;5027755;28;20484;-78
2022/12/08 08:47:10;;;;;;;3.13;2.40;;;;;;;2.58;100.00;100780.41;5028504;28;20044;-75
2022/12/08 08:49:36;;;;;;;2.47;2.00;;;;;;;2.59;100.00;100775.91;5030670;28;20072;-78
2022/12/08 08:52:03;;;;;;;2.92;2.20;;;;;;;2.60;100.00;100780.34;5031212;28;20115;-78
2022/12/08 08:54:29;;;;;;;5.22;2.42;;;;;;;2.58;100.00;100780.41;5043296;28;20112;-79
2022/12/08 08:56:56;;;;;;;4.05;2.10;;;;;;;2.59;100.00;100778.59;5028566;28;20374;-78
2022/12/08 08:59:22;;;;;;;2.67;1.90;;;;;;;2.61;100.00;100777.63;5027545;28;20045;-79
2022/12/08 09:01:47;;;;;;;6.38;2.40;;;;;;;2.64;100.00;100782.84;5027809;28;20037;-79
2022/12/08 09:04:12;;;;;;;3.08;2.20;;;;;;;2.66;100.00;100782.75;5026749;28;20280;-78
2022/12/08 09:06:38;;;;;;;3.05;2.45;;;;;;;2.67;100.00;100782.72;5029010;28;20048;-79
2022/12/08 09:09:03;;;;;;;4.60;2.55;;;;;;;2.68;100.00;100776.41;5027484;28;20041;-79
2022/12/08 09:11:28;;;;;;;7.72;2.33;;;;;;;2.70;100.00;100770.97;5031935;28;20021;-79
2022/12/08 09:13:54;;;;;;;3.50;2.20;;;;;;;2.72;100.00;100777.16;5027371;28;20038;-79
2022/12/08 09:16:21;;;;;;;4.88;2.65;;;;;;;2.73;100.00;100773.53;5044191;28;20021;-81
2022/12/08 09:18:48;;;;;;;4.85;2.50;;;;;;;2.75;100.00;100775.22;5026102;28;20072;-78
2022/12/08 09:21:19;;;;;;;6.13;2.60;;;;;;;2.79;100.00;100775.94;5028373;28;20033;-79
2022/12/08 09:23:44;;;;;;;3.25;2.95;;;;;;;2.84;100.00;100771.25;5028660;28;20037;-79
2022/12/08 09:26:10;;;;;;;4.68;2.90;;;;;;;2.91;100.00;100767.41;5035290;28;20074;-78
2022/12/08 09:28:35;;;;;;;7.72;3.13;;;;;;;2.98;100.00;100766.19;5028256;28;20052;-78
2022/12/08 09:31:01;;;;;;;5.68;3.60;;;;;;;3.05;100.00;100767.69;5027390;28;20100;-78
2022/12/08 09:33:26;;;;;;;6.55;3.55;;;;;;;3.08;100.00;100766.69;5012140;28;20557;-78
2022/12/08 09:35:52;;;;;;;3.88;3.35;;;;;;;3.09;100.00;100767.56;5026551;28;20128;-78
2022/12/08 09:38:17;;;;;;;6.32;3.30;;;;;;;3.09;100.00;100760.38;5026734;28;20076;-77
2022/12/08 09:40:51;;;;;;;5.05;3.72;;;;;;;3.12;100.00;100767.41;5029606;28;20056;-78
2022/12/08 09:43:38;;;;;;;7.28;3.90;;;;;;;3.14;100.00;100769.09;5028147;28;20037;-77
2022/12/08 09:46:08;;;;;;;6.05;3.60;;;;;;;3.17;100.00;100768.09;5026646;28;20049;-78
2022/12/08 09:48:38;;;;;;;5.47;2.78;;;;;;;3.19;100.00;100763.53;5025676;28;20060;-78
2022/12/08 09:51:04;;;;;;;5.18;3.55;;;;;;;3.23;100.00;100768.72;5027490;28;20036;-78
2022/12/08 09:53:51;;;;;;;10.13;3.58;;;;;;;3.26;100.00;100768.59;5027896;28;20431;-78
2022/12/08 09:56:22;;;;;;;4.53;2.97;;;;;;;3.25;100.00;100768.63;5025775;28;20063;-76
2022/12/08 09:59:29;;;;;;;4.88;3.20;;;;;;;3.31;100.00;100766.56;5029973;28;20175;-78
2022/12/08 10:01:54;;;;;;;9.48;3.80;;;;;;;3.33;100.00;100758.44;5005269;28;20050;-78
2022/12/08 10:04:21;;;;;;;6.60;3.65;;;;;;;3.38;100.00;100761.78;5035984;28;20059;-78
2022/12/08 10:06:54;;;;;;;6.00;4.22;;;;;;;3.38;100.00;100764.47;5027469;28;20388;-78
2022/12/08 10:09:49;;;;;;;7.20;3.85;;;;;;;3.40;100.00;100767.09;5026528;28;20377;-78
2022/12/08 10:12:25;;;;;;;6.43;4.30;;;;;;;3.40;100.00;100759.88;5036061;28;20049;-78
2022/12/08 10:15:21;;;;;;;6.53;4.20;;;;;;;3.45;100.00;100765.06;5043137;28;20489;-78
2022/12/08 10:17:50;;;;;;;10.88;5.63;;;;;;;3.47;100.00;100752.44;5042159;28;20037;-78
2022/12/08 10:20:24;;;;;;;8.85;4.30;;;;;;;3.51;100.00;100760.31;5025786;28;20396;-78
2022/12/08 10:23:09;;;;;;;8.38;4.53;;;;;;;3.52;100.00;100756.66;5026371;28;20457;-78
2022/12/08 10:25:40;;;;;;;10.07;5.15;;;;;;;3.55;100.00;100751.16;5026260;28;20512;-78
2022/12/08 10:28:08;;;;;;;11.40;6.13;;;;;;;3.58;100.00;100748.31;5025424;28;20396;-78
2022/12/08 10:30:33;;;;;;;12.38;7.38;;;;;;;3.61;100.00;100736.56;5026176;28;20037;-77
2022/12/08 10:32:58;;;;;;;21.05;9.52;;;;;;;3.61;100.00;100750.00;5035594;28;20120;-78
2022/12/08 10:35:41;;;;;;;16.80;10.20;;;;;;;3.63;100.00;100737.34;5035290;28;20033;-78
2022/12/08 10:38:19;;;;;;;17.70;11.05;;;;;;;3.67;100.00;100740.78;5026584;28;20036;-77
2022/12/08 10:40:45;;;;;;;30.33;14.07;;;;;;;3.62;100.00;100732.91;5043661;28;20029;-78
2022/12/08 10:43:20;;;;;;;26.65;14.70;;;;;;;3.61;100.00;100736.56;5040307;28;20445;-76
2022/12/08 10:45:45;;;;;;;24.60;14.98;;;;;;;3.60;100.00;100728.56;5025983;28;20044;-78
2022/12/08 10:48:10;;;;;;;31.30;16.10;;;;;;;3.60;100.00;100732.13;5026726;28;20554;-76
2022/12/08 10:50:51;;;;;;;29.83;15.98;;;;;;;3.61;100.00;100739.25;5027494;28;20418;-78
2022/12/08 10:53:29;;;;;;;34.05;16.40;;;;;;;3.55;100.00;100731.47;5026776;28;20041;-78
2022/12/08 10:56:00;;;;;;;28.88;14.90;;;;;;;3.54;100.00;100733.28;5027414;28;20029;-78
2022/12/08 10:58:25;;;;;;;26.75;15.52;;;;;;;3.54;100.00;100732.38;5027552;28;20041;-77
2022/12/08 11:00:55;;;;;;;26.90;13.98;;;;;;;3.52;100.00;100736.97;5042445;28;20025;-76
2022/12/08 11:03:42;;;;;;;26.25;15.60;;;;;;;3.49;100.00;100732.59;5024683;28;20042;-77
2022/12/08 11:06:14;;;;;;;26.40;14.18;;;;;;;3.51;100.00;100727.16;5018851;28;20132;-78
2022/12/08 11:08:47;;;;;;;24.95;13.70;;;;;;;3.53;100.00;100727.94;5029256;28;20037;-78
2022/12/08 11:11:12;;;;;;;26.08;14.43;;;;;;;3.47;100.00;100717.47;5035441;28;20041;-78
2022/12/08 11:13:41;;;;;;;21.10;11.65;;;;;;;3.47;100.00;100714.78;5031221;28;20508;-78
2022/12/08 11:16:06;;;;;;;19.95;12.00;;;;;;;3.43;100.00;100711.34;5031452;28;20057;-78
2022/12/08 11:18:43;;;;;;;22.33;12.27;;;;;;;3.37;100.00;100721.53;5033968;28;20131;-79
2022/12/08 11:21:12;;;;;;;20.05;11.25;;;;;;;3.34;100.00;100714.47;5031263;28;20400;-78
2022/12/08 11:23:41;;;;;;;24.50;11.75;;;;;;;3.39;100.00;100714.25;5031283;28;20148;-78
2022/12/08 11:26:19;;;;;;;22.25;11.90;;;;;;;3.38;100.00;100712.50;5031385;28;20040;-78
2022/12/08 11:28:45;;;;;;;19.83;11.98;;;;;;;3.40;100.00;100699.84;5045707;28;20492;-78
2022/12/08 11:31:27;;;;;;;20.90;11.98;;;;;;;3.42;100.00;100703.38;5031409;28;20128;-77